createdAt,value
2022-12-01T00:00:10.477Z,-14.21
2022-12-01T00:10:26.926Z,-14.18
2022-12-01T00:20:30.340Z,-14.16
2022-12-01T00:30:34.584Z,-14.16
2022-12-01T00:40:37.921Z,-14.17
2022-12-01T00:50:42.416Z,-14.18
2022-12-01T01:00:45.421Z,-14.20
2022-12-01T01:10:50.095Z,-14.24
2022-12-01T01:20:56.809Z,-14.28
2022-12-01T01:31:05.902Z,-14.35
2022-12-01T01:41:09.337Z,-14.41
2022-12-01T01:51:14.928Z,-14.48
2022-12-01T02:01:17.932Z,-14.52
2022-12-01T02:11:52.264Z,-14.56
2022-12-01T02:22:08.692Z,-14.62
2022-12-01T02:32:20.217Z,-14.66
2022-12-01T02:42:49.943Z,-14.71
2022-12-01T02:52:55.186Z,-14.75
2022-12-01T03:03:21.895Z,-14.81
2022-12-01T03:13:38.779Z,-14.86
2022-12-01T03:23:48.645Z,-14.89
2022-12-01T03:33:58.403Z,-14.93
2022-12-01T03:44:07.984Z,-14.96
2022-12-01T03:54:19.704Z,-15.00
2022-12-01T04:04:22.382Z,-15.06
2022-12-01T04:14:26.710Z,-15.11
2022-12-01T04:24:29.588Z,-15.18
2022-12-01T04:34:33.976Z,-15.24
2022-12-01T04:44:37.159Z,-15.30
2022-12-01T04:54:41.555Z,-15.36
2022-12-01T05:04:46.291Z,-15.45
2022-12-01T05:14:50.704Z,-15.54
2022-12-01T05:24:53.750Z,-15.60
2022-12-01T05:34:58.069Z,-15.64
2022-12-01T05:45:01.146Z,-15.67
2022-12-01T05:55:07.039Z,-15.69
2022-12-01T06:05:10.415Z,-15.69
2022-12-01T06:15:14.989Z,-15.68
2022-12-01T06:25:18.155Z,-15.62
2022-12-01T06:35:22.886Z,-15.55
2022-12-01T06:45:25.803Z,-15.47
2022-12-01T06:55:30.409Z,-15.38
2022-12-01T07:05:33.688Z,-15.29
2022-12-01T07:15:38.903Z,-15.21
2022-12-01T07:25:42.544Z,-15.10
2022-12-01T07:35:48.280Z,-14.96
2022-12-01T07:45:51.304Z,-14.81
2022-12-01T07:55:56.031Z,-14.62
2022-12-01T08:05:59.867Z,-14.44
2022-12-01T08:16:06.622Z,-14.28
2022-12-01T08:26:13.186Z,-14.10
2022-12-01T08:36:18.103Z,-13.91
2022-12-01T08:46:21.448Z,-13.70
2022-12-01T08:56:27.231Z,-13.47
2022-12-01T09:06:30.313Z,-13.30
2022-12-01T09:16:34.819Z,-13.08
2022-12-01T09:26:37.808Z,-12.92
2022-12-01T09:36:42.564Z,-12.80
2022-12-01T09:46:50.129Z,-12.68
2022-12-01T09:56:57.163Z,-12.56
2022-12-01T10:07:02.529Z,-12.46
2022-12-01T10:17:19.425Z,-12.39
2022-12-01T10:27:36.247Z,-12.30
2022-12-01T10:37:40.667Z,-12.16
2022-12-01T10:48:09.126Z,-12.03
2022-12-01T10:58:17.322Z,-11.90
2022-12-01T11:08:25.962Z,-11.77
2022-12-01T11:18:33.906Z,-11.67
2022-12-01T11:28:40.472Z,-11.55
2022-12-01T11:38:45.051Z,-11.48
2022-12-01T11:48:58.257Z,-11.41
2022-12-01T11:59:06.177Z,-11.34
2022-12-01T12:09:45.097Z,-11.28
2022-12-01T12:20:19.569Z,-11.23
2022-12-01T12:30:26.420Z,-11.20
2022-12-01T12:40:42.852Z,-11.19
2022-12-01T12:50:53.434Z,-11.19
2022-12-01T13:01:01.839Z,-11.19
2022-12-01T13:11:10.632Z,-11.24
2022-12-01T13:21:18.866Z,-11.26
2022-12-01T13:31:23.558Z,-11.36
2022-12-01T13:41:32.722Z,-11.43
2022-12-01T13:52:09.264Z,-11.51
2022-12-01T14:02:22.248Z,-11.54
2022-12-01T14:12:30.478Z,-11.57
2022-12-01T14:22:38.613Z,-11.58
2022-12-01T14:32:41.563Z,-11.58
2022-12-01T14:43:12.266Z,-11.62
2022-12-01T14:53:25.406Z,-11.74
2022-12-01T15:03:35.614Z,-11.77
2022-12-01T15:13:48.291Z,-11.83
2022-12-01T15:24:00.490Z,-11.87
2022-12-01T15:34:03.490Z,-11.89
2022-12-01T15:44:20.718Z,-11.88
2022-12-01T15:54:26.688Z,-11.87
2022-12-01T16:04:32.497Z,-11.91
2022-12-01T16:14:36.314Z,-11.90
2022-12-01T16:24:48.036Z,-11.92
2022-12-01T16:34:52.812Z,-11.92
2022-12-01T16:44:59.767Z,-11.97
2022-12-01T16:55:03.017Z,-11.99
2022-12-01T17:05:09.551Z,-12.03
2022-12-01T17:15:13.088Z,-12.06
2022-12-01T17:25:17.736Z,-12.09
2022-12-01T17:35:20.925Z,-12.14
2022-12-01T17:45:27.901Z,-12.18
2022-12-01T17:55:31.975Z,-12.23
2022-12-01T18:05:36.817Z,-12.31
2022-12-01T18:15:40.776Z,-12.37
2022-12-01T18:25:47.740Z,-12.40
2022-12-01T18:35:51.834Z,-12.45
2022-12-01T18:46:00.337Z,-12.49
2022-12-01T18:56:04.672Z,-12.53
2022-12-01T19:06:12.746Z,-12.56
2022-12-01T19:16:18.003Z,-12.60
2022-12-01T19:26:23.311Z,-12.64
2022-12-01T19:36:27.554Z,-12.68
2022-12-01T19:46:32.051Z,-12.71
2022-12-01T19:56:35.199Z,-12.73
2022-12-01T20:06:39.650Z,-12.76
2022-12-01T20:16:42.678Z,-12.80
2022-12-01T20:26:50.323Z,-12.85
2022-12-01T20:36:53.671Z,-12.92
2022-12-01T20:46:58.040Z,-12.96
2022-12-01T20:57:01.026Z,-13.01
2022-12-01T21:07:05.442Z,-13.05
2022-12-01T21:17:18.970Z,-13.10
2022-12-01T21:27:23.412Z,-13.14
2022-12-01T21:37:28.328Z,-13.18
2022-12-01T21:47:32.670Z,-13.24
2022-12-01T21:57:43.125Z,-13.28
2022-12-01T22:07:47.674Z,-13.33
2022-12-01T22:17:50.455Z,-13.36
2022-12-01T22:27:55.190Z,-13.42
2022-12-01T22:38:15.717Z,-13.46
2022-12-01T22:48:35.860Z,-13.51
2022-12-01T22:58:41.535Z,-13.56
2022-12-01T23:08:45.753Z,-13.60
2022-12-01T23:18:49.111Z,-13.65
2022-12-01T23:28:56.464Z,-13.68
2022-12-01T23:39:07.421Z,-13.72
2022-12-01T23:49:14.993Z,-13.76
2022-12-01T23:59:19.715Z,-13.82
